Wednesday, April 25, 2018, 5:02 AM EDT
Back to Local

KBLM, Belmar-farmingdale

Location: Farmingdale, NJ, United States Lat: 40.183
Local Time: 5:02 AM EDT ( 9:02 GMT) Lon: -74.133
Time Zone: US/Eastern Elev: 157 ft

Show me the last for .
Show Decoded

2018-04-25 03:56 METAR KBLM 250756Z AUTO 09012KT 2 1/2SM -RA BR OVC004 12/11 A2999 RMK AO2 SLP162
                 P0003 T01170111 =
2018-04-25 03:04 METAR KBLM 250704Z AUTO 10013G18KT 2 1/2SM -RA BR OVC004 11/11 A3002 RMK AO2
                 P0000 TSNO =
2018-04-25 02:56 METAR KBLM 250656Z AUTO 10012KT 3SM -RA BR OVC004 11/11 A3002 RMK AO2 SLP172
                 P0001 T01110106 =
2018-04-25 02:11 METAR KBLM 250611Z AUTO 11009KT 4SM -RA BR BKN004 OVC012 11/11 A3005 RMK AO2
                 P0000 =
2018-04-25 01:56 METAR KBLM 250556Z AUTO 11011KT 4SM -RA BR FEW004 BKN012 OVC048 11/11 RMK AO2
                 RAB00 SLPNO P0001 60001 T01110106 10117 20106 $ =
2018-04-25 01:50 METAR KBLM 250550Z AUTO 11011KT 4SM -RA BR BKN012 BKN017 OVC048 11/11 A3007 RMK
                 AO2 RAB00 P0001 =
2018-04-25 00:56 METAR KBLM 250456Z AUTO 11014KT 10SM FEW026 BKN032 OVC049 12/11 A3010 RMK AO2
                 RAE30 SLP197 P0000 T01170106 401670039 =
2018-04-24 23:56 METAR KBLM 250356Z AUTO 11010G18KT 10SM -RA FEW040 BKN050 OVC075 11/10 A3013 RMK
                 AO2 SLP206 P0000 T01110100 =
2018-04-24 23:07 METAR KBLM 250307Z AUTO 11015G19KT 10SM -RA FEW009 OVC065 11/10 A3015 RMK AO2
                 P0000 =
2018-04-24 22:56 METAR KBLM 250256Z AUTO 10012KT 10SM -RA SCT047 OVC060 11/10 A3015 RMK AO2
                 SLP216 P0000 60000 T01110100 =
2018-04-24 21:56 METAR KBLM 250156Z AUTO 10016G22KT 10SM -RA BKN041 BKN050 OVC060 11/09 A3018 RMK
                 AO2 RAB04 SLP225 P0000 T01110089 =
2018-04-24 20:56 METAR KBLM 250056Z AUTO 10SM OVC037 12/08 RMK AO2 RAE05 SLPNO P0000 T01170078 $
                 =
2018-04-24 19:56 METAR KBLM 242356Z AUTO 10013KT 10SM -RA BKN048 OVC065 11/08 A3021 RMK AO2 RAB50
                 SLP235 6//// T01110078 10150 20111 56017 TSNO =
2018-04-24 18:56 METAR KBLM 242256Z AUTO 11014G19KT 10SM FEW044 OVC050 12/07 A3022 RMK AO2 SLP239
                 T01220072 =
2018-04-24 17:56 METAR KBLM 242156Z AUTO 11014G19KT 10SM OVC050 13/07 A3024 RMK AO2 SLP245
                 T01280072 TSNO =
2018-04-24 16:56 METAR KBLM 242056Z AUTO 12012G18KT 10SM OVC045 13/07 A3026 RMK AO2 SLP251 6////
                 T01330072 56026 =
2018-04-24 15:56 METAR KBLM 241956Z AUTO 10012KT 10SM CLR 14/07 A3027 RMK AO2 SLP257 T01440067 =
2018-04-24 14:56 METAR KBLM 241856Z AUTO 11013G19KT 10SM CLR 15/06 A3030 RMK AO2 SLP267 T01500061
                 =
2018-04-24 13:56 METAR KBLM 241756Z AUTO 12014G19KT 10SM BKN048 15/06 A3034 RMK AO2 SLP278 6////
                 T01500061 10167 20106 58019 =
2018-04-24 12:56 METAR KBLM 241656Z AUTO 13012G24KT 10SM BKN048 16/06 A3035 RMK AO2 SLP284
                 T01610056 =
2018-04-24 11:56 METAR KBLM 241556Z AUTO 13011G20KT 10SM OVC048 17/02 A3038 RMK AO2 SLP292
                 T01670017 =
2018-04-24 10:56 METAR KBLM 241456Z AUTO 14013G19KT 10SM SCT046 16/03 A3039 RMK AO2 SLP297 6////
                 T01560028 58006 =
2018-04-24 09:56 METAR KBLM 241356Z AUTO 14007KT 10SM OVC046 15/02 A3040 RMK AO2 SLP300 T01500022
                 =
2018-04-24 08:56 METAR KBLM 241256Z AUTO 15007KT 10SM BKN046 13/05 A3041 RMK AO2 SLP302 T01330050
                 =
2018-04-24 07:56 METAR KBLM 241156Z AUTO 14005KT 10SM CLR 11/06 A3041 RMK AO2 SLP303 6//// 7////
                 T01060061 10106 20039 50003 =
2018-04-24 06:56 METAR KBLM 241056Z AUTO 12003KT 9SM CLR 06/05 A3041 RMK AO2 SLP305 T00610050 =
2018-04-24 05:56 METAR KBLM 240956Z AUTO 09004KT 10SM CLR 04/04 A3040 RMK AO2 SLP299 T00440039 =

Support USWX by starting your Amazon purchase here.